sensor_id;sensor_type;location;lat;lon;timestamp;pressure;altitude;pressure_sealevel;temperature;humidity
5062;BME280;2351;50.812;12.872;2023-04-25T00:00:42;97085.03;;;5.83;86.77
5062;BME280;2351;50.812;12.872;2023-04-25T00:03:14;97089.72;;;5.80;86.62
5062;BME280;2351;50.812;12.872;2023-04-25T00:05:46;97084.47;;;5.80;86.51
5062;BME280;2351;50.812;12.872;2023-04-25T00:08:18;97078.75;;;5.75;87.06
5062;BME280;2351;50.812;12.872;2023-04-25T00:10:49;97080.66;;;5.72;87.27
5062;BME280;2351;50.812;12.872;2023-04-25T00:13:21;97081.63;;;5.71;87.04
5062;BME280;2351;50.812;12.872;2023-04-25T00:15:54;97081.03;;;5.68;87.37
5062;BME280;2351;50.812;12.872;2023-04-25T00:18:26;97084.72;;;5.65;87.51
5062;BME280;2351;50.812;12.872;2023-04-25T00:20:59;97078.75;;;5.63;87.56
5062;BME280;2351;50.812;12.872;2023-04-25T00:23:30;97082.38;;;5.62;87.54
5062;BME280;2351;50.812;12.872;2023-04-25T00:26:02;97075.56;;;5.60;87.61
5062;BME280;2351;50.812;12.872;2023-04-25T00:28:34;97074.84;;;5.57;87.19
5062;BME280;2351;50.812;12.872;2023-04-25T00:31:07;97077.84;;;5.53;87.42
5062;BME280;2351;50.812;12.872;2023-04-25T00:33:39;97076.97;;;5.52;87.45
5062;BME280;2351;50.812;12.872;2023-04-25T00:36:10;97070.34;;;5.48;87.69
5062;BME280;2351;50.812;12.872;2023-04-25T00:38:42;97077.50;;;5.46;87.49
5062;BME280;2351;50.812;12.872;2023-04-25T00:41:14;97084.66;;;5.44;87.50
5062;BME280;2351;50.812;12.872;2023-04-25T00:43:47;97079.41;;;5.44;87.64
5062;BME280;2351;50.812;12.872;2023-04-25T00:46:21;97073.69;;;5.39;87.49
5062;BME280;2351;50.812;12.872;2023-04-25T00:48:52;97081.53;;;5.39;87.79
5062;BME280;2351;50.812;12.872;2023-04-25T00:51:25;97072.13;;;5.36;87.60
5062;BME280;2351;50.812;12.872;2023-04-25T00:53:57;97073.09;;;5.35;87.56
5062;BME280;2351;50.812;12.872;2023-04-25T00:56:28;97073.31;;;5.32;87.88
5062;BME280;2351;50.812;12.872;2023-04-25T00:59:00;97075.38;;;5.28;87.76
5062;BME280;2351;50.812;12.872;2023-04-25T01:01:33;97077.84;;;5.30;87.53
5062;BME280;2351;50.812;12.872;2023-04-25T01:04:05;97071.91;;;5.28;87.71
5062;BME280;2351;50.812;12.872;2023-04-25T01:06:37;97067.72;;;5.25;87.39
5062;BME280;2351;50.812;12.872;2023-04-25T01:09:09;97069.50;;;5.25;87.37
5062;BME280;2351;50.812;12.872;2023-04-25T01:11:41;97068.34;;;5.18;87.82
5062;BME280;2351;50.812;12.872;2023-04-25T01:14:12;97060.47;;;5.18;88.01
5062;BME280;2351;50.812;12.872;2023-04-25T01:16:45;97062.25;;;5.17;87.94
5062;BME280;2351;50.812;12.872;2023-04-25T01:19:19;97072.72;;;5.17;88.15
5062;BME280;2351;50.812;12.872;2023-04-25T01:21:52;97062.97;;;5.19;88.06
5062;BME280;2351;50.812;12.872;2023-04-25T01:24:24;97062.81;;;5.21;88.27
5062;BME280;2351;50.812;12.872;2023-04-25T01:26:56;97054.00;;;5.22;88.57
5062;BME280;2351;50.812;12.872;2023-04-25T01:29:29;97055.66;;;5.23;88.80
5062;BME280;2351;50.812;12.872;2023-04-25T01:32:01;97052.81;;;5.26;88.61
5062;BME280;2351;50.812;12.872;2023-04-25T01:34:33;97051.63;;;5.30;88.95
5062;BME280;2351;50.812;12.872;2023-04-25T01:37:06;97045.19;;;5.34;88.83
5062;BME280;2351;50.812;12.872;2023-04-25T01:39:38;97044.94;;;5.37;88.82
5062;BME280;2351;50.812;12.872;2023-04-25T01:42:10;97051.59;;;5.41;89.02
5062;BME280;2351;50.812;12.872;2023-04-25T01:44:42;97048.72;;;5.45;89.07
5062;BME280;2351;50.812;12.872;2023-04-25T01:47:13;97048.63;;;5.46;89.19
5062;BME280;2351;50.812;12.872;2023-04-25T01:49:45;97048.47;;;5.48;89.14
5062;BME280;2351;50.812;12.872;2023-04-25T01:52:18;97045.75;;;5.49;89.19
5062;BME280;2351;50.812;12.872;2023-04-25T01:54:50;97046.56;;;5.50;89.44
5062;BME280;2351;50.812;12.872;2023-04-25T01:57:22;97049.19;;;5.50;89.41
5062;BME280;2351;50.812;12.872;2023-04-25T01:59:57;97052.69;;;5.50;89.78
5062;BME280;2351;50.812;12.872;2023-04-25T02:02:30;97048.25;;;5.51;89.42
5062;BME280;2351;50.812;12.872;2023-04-25T02:05:01;97048.97;;;5.53;89.60
5062;BME280;2351;50.812;12.872;2023-04-25T02:07:34;97047.16;;;5.53;89.91
5062;BME280;2351;50.812;12.872;2023-04-25T02:10:07;97048.72;;;5.56;89.65
5062;BME280;2351;50.812;12.872;2023-04-25T02:12:38;97045.38;;;5.54;90.00
5062;BME280;2351;50.812;12.872;2023-04-25T02:15:10;97043.47;;;5.56;89.88
5062;BME280;2351;50.812;12.872;2023-04-25T02:17:42;97046.09;;;5.56;90.06
5062;BME280;2351;50.812;12.872;2023-04-25T02:20:15;97053.00;;;5.57;90.40
5062;BME280;2351;50.812;12.872;2023-04-25T02:22:49;97042.38;;;5.58;90.42
5062;BME280;2351;50.812;12.872;2023-04-25T02:25:21;97051.81;;;5.61;90.38
5062;BME280;2351;50.812;12.872;2023-04-25T02:27:53;97044.75;;;5.62;90.81
5062;BME280;2351;50.812;12.872;2023-04-25T02:30:25;97049.78;;;5.65;90.89
5062;BME280;2351;50.812;12.872;2023-04-25T02:32:56;97043.66;;;5.64;91.19
5062;BME280;2351;50.812;12.872;2023-04-25T02:35:28;97043.44;;;5.67;91.06
5062;BME280;2351;50.812;12.872;2023-04-25T02:38:01;97044.03;;;5.71;91.50
5062;BME280;2351;50.812;12.872;2023-04-25T02:40:33;97041.41;;;5.71;91.64
5062;BME280;2351;50.812;12.872;2023-04-25T02:43:04;97030.63;;;5.74;91.61
5062;BME280;2351;50.812;12.872;2023-04-25T02:45:37;97028.84;;;5.75;91.87
5062;BME280;2351;50.812;12.872;2023-04-25T02:48:08;97023.59;;;5.75;92.24
5062;BME280;2351;50.812;12.872;2023-04-25T02:50:40;97034.69;;;5.78;92.25
5062;BME280;2351;50.812;12.872;2023-04-25T02:53:13;97025.03;;;5.79;92.42
5062;BME280;2351;50.812;12.872;2023-04-25T02:55:45;97028.38;;;5.81;92.32
5062;BME280;2351;50.812;12.872;2023-04-25T02:58:17;97024.78;;;5.82;92.65
5062;BME280;2351;50.812;12.872;2023-04-25T03:00:48;97033.38;;;5.84;92.50
5062;BME280;2351;50.812;12.872;2023-04-25T03:03:20;97016.63;;;5.85;92.53
5062;BME280;2351;50.812;12.872;2023-04-25T03:05:52;97016.53;;;5.86;92.58
5062;BME280;2351;50.812;12.872;2023-04-25T03:08:26;97020.69;;;5.89;92.59
5062;BME280;2351;50.812;12.872;2023-04-25T03:11:03;97019.72;;;5.90;93.05
5062;BME280;2351;50.812;12.872;2023-04-25T03:13:35;97020.44;;;5.92;93.29
5062;BME280;2351;50.812;12.872;2023-04-25T03:16:07;97013.25;;;5.94;93.46
5062;BME280;2351;50.812;12.872;2023-04-25T03:18:38;97016.34;;;5.99;93.17
5062;BME280;2351;50.812;12.872;2023-04-25T03:21:10;97015.44;;;6.00;93.42
5062;BME280;2351;50.812;12.872;2023-04-25T03:23:43;97012.41;;;6.05;93.34
5062;BME280;2351;50.812;12.872;2023-04-25T03:26:15;97012.41;;;6.05;93.53
5062;BME280;2351;50.812;12.872;2023-04-25T03:28:47;97019.19;;;6.08;93.47
5062;BME280;2351;50.812;12.872;2023-04-25T03:31:18;97014.78;;;6.08;93.72
5062;BME280;2351;50.812;12.872;2023-04-25T03:33:50;97017.28;;;6.10;93.76
5062;BME280;2351;50.812;12.872;2023-04-25T03:36:22;97010.97;;;6.12;93.82
5062;BME280;2351;50.812;12.872;2023-04-25T03:38:55;97016.06;;;6.14;93.90
5062;BME280;2351;50.812;12.872;2023-04-25T03:41:26;97014.16;;;6.16;94.14
5062;BME280;2351;50.812;12.872;2023-04-25T03:43:58;97008.91;;;6.16;94.05
5062;BME280;2351;50.812;12.872;2023-04-25T03:46:30;97020.13;;;6.18;93.90
5062;BME280;2351;50.812;12.872;2023-04-25T03:49:02;97014.72;;;6.20;94.16
5062;BME280;2351;50.812;12.872;2023-04-25T03:51:33;97018.19;;;6.20;94.08
5062;BME280;2351;50.812;12.872;2023-04-25T03:54:06;97013.75;;;6.21;93.97
5062;BME280;2351;50.812;12.872;2023-04-25T03:56:38;97021.53;;;6.22;93.89
5062;BME280;2351;50.812;12.872;2023-04-25T03:59:10;97018.06;;;6.22;94.17
5062;BME280;2351;50.812;12.872;2023-04-25T04:01:42;97018.19;;;6.20;94.38
5062;BME280;2351;50.812;12.872;2023-04-25T04:04:13;97008.66;;;6.19;94.46
5062;BME280;2351;50.812;12.872;2023-04-25T04:06:45;97022.34;;;6.23;94.60
5062;BME280;2351;50.812;12.872;2023-04-25T04:09:18;97024.03;;;6.24;94.62
5062;BME280;2351;50.812;12.872;2023-04-25T04:11:50;97017.69;;;6.26;94.46
5062;BME280;2351;50.812;12.872;2023-04-25T04:14:22;97027.09;;;6.29;94.63
5062;BME280;2351;50.812;12.872;2023-04-25T04:16:54;97028.78;;;6.30;94.53
5062;BME280;2351;50.812;12.872;2023-04-25T04:19:25;97021.84;;;6.29;94.94
5062;BME280;2351;50.812;12.872;2023-04-25T04:21:57;97027.94;;;6.29;94.72
5062;BME280;2351;50.812;12.872;2023-04-25T04:24:30;97027.94;;;6.29;94.93
5062;BME280;2351;50.812;12.872;2023-04-25T04:27:03;97032.94;;;6.32;94.92
5062;BME280;2351;50.812;12.872;2023-04-25T04:29:34;97031.97;;;6.33;94.62
5062;BME280;2351;50.812;12.872;2023-04-25T04:32:06;97036.16;;;6.36;94.89
5062;BME280;2351;50.812;12.872;2023-04-25T04:34:39;97036.53;;;6.31;94.62
5062;BME280;2351;50.812;12.872;2023-04-25T04:37:11;97032.88;;;6.23;94.21
5062;BME280;2351;50.812;12.872;2023-04-25T04:39:45;97034.91;;;6.19;93.09
5062;BME280;2351;50.812;12.872;2023-04-25T04:42:17;97030.38;;;6.21;93.72
5062;BME280;2351;50.812;12.872;2023-04-25T04:44:49;97043.38;;;6.23;93.81
5062;BME280;2351;50.812;12.872;2023-04-25T04:47:22;97037.16;;;6.24;93.13
5062;BME280;2351;50.812;12.872;2023-04-25T04:49:54;97045.13;;;6.33;93.71
5062;BME280;2351;50.812;12.872;2023-04-25T04:52:25;97050.13;;;6.37;93.58
5062;BME280;2351;50.812;12.872;2023-04-25T04:54:58;97049.63;;;6.43;93.49
5062;BME280;2351;50.812;12.872;2023-04-25T04:57:30;97050.69;;;6.40;92.85
5062;BME280;2351;50.812;12.872;2023-04-25T05:00:04;97057.50;;;6.43;92.24
5062;BME280;2351;50.812;12.872;2023-04-25T05:02:37;97051.84;;;6.47;92.70
5062;BME280;2351;50.812;12.872;2023-04-25T05:05:09;97053.53;;;6.48;92.39
5062;BME280;2351;50.812;12.872;2023-04-25T05:07:41;97051.28;;;6.44;91.30
5062;BME280;2351;50.812;12.872;2023-04-25T05:10:14;97050.63;;;6.52;91.75
5062;BME280;2351;50.812;12.872;2023-04-25T05:12:46;97055.00;;;6.62;91.69
5062;BME280;2351;50.812;12.872;2023-04-25T05:15:17;97045.19;;;6.65;90.71
5062;BME280;2351;50.812;12.872;2023-04-25T05:17:49;97048.19;;;6.81;90.19
5062;BME280;2351;50.812;12.872;2023-04-25T05:20:21;97053.47;;;6.91;89.13
5062;BME280;2351;50.812;12.872;2023-04-25T05:22:52;97046.34;;;7.03;89.57
5062;BME280;2351;50.812;12.872;2023-04-25T05:25:25;97044.63;;;6.92;86.71
5062;BME280;2351;50.812;12.872;2023-04-25T05:27:57;97043.75;;;6.82;83.95
5062;BME280;2351;50.812;12.872;2023-04-25T05:30:29;97045.75;;;6.89;85.21
5062;BME280;2351;50.812;12.872;2023-04-25T05:33:01;97039.66;;;6.99;84.29
5062;BME280;2351;50.812;12.872;2023-04-25T05:35:32;97046.09;;;7.06;84.40
5062;BME280;2351;50.812;12.872;2023-04-25T05:38:05;97045.19;;;6.96;81.31
5062;BME280;2351;50.812;12.872;2023-04-25T05:40:38;97048.53;;;6.98;81.53
5062;BME280;2351;50.812;12.872;2023-04-25T05:43:09;97047.31;;;7.02;81.48
5062;BME280;2351;50.812;12.872;2023-04-25T05:45:41;97046.84;;;6.97;80.10
5062;BME280;2351;50.812;12.872;2023-04-25T05:48:13;97046.09;;;7.06;82.57
5062;BME280;2351;50.812;12.872;2023-04-25T05:50:44;97050.19;;;6.99;78.79
5062;BME280;2351;50.812;12.872;2023-04-25T05:53:16;97054.84;;;6.85;79.21
5062;BME280;2351;50.812;12.872;2023-04-25T05:55:49;97057.06;;;6.90;79.88
5062;BME280;2351;50.812;12.872;2023-04-25T05:58:21;97056.25;;;6.89;78.77
5062;BME280;2351;50.812;12.872;2023-04-25T06:00:53;97072.31;;;6.86;78.96
5062;BME280;2351;50.812;12.872;2023-04-25T06:03:24;97070.63;;;6.85;78.84
5062;BME280;2351;50.812;12.872;2023-04-25T06:05:56;97070.53;;;6.97;79.31
5062;BME280;2351;50.812;12.872;2023-04-25T06:08:28;97079.97;;;6.99;78.13
5062;BME280;2351;50.812;12.872;2023-04-25T06:11:01;97077.75;;;6.95;77.54
5062;BME280;2351;50.812;12.872;2023-04-25T06:13:32;97081.72;;;6.89;77.83
5062;BME280;2351;50.812;12.872;2023-04-25T06:16:05;97075.22;;;6.93;77.76
5062;BME280;2351;50.812;12.872;2023-04-25T06:18:37;97081.59;;;6.90;76.23
5062;BME280;2351;50.812;12.872;2023-04-25T06:21:09;97082.31;;;6.92;77.84
5062;BME280;2351;50.812;12.872;2023-04-25T06:23:41;97075.03;;;6.85;76.72
5062;BME280;2351;50.812;12.872;2023-04-25T06:26:14;97082.03;;;6.96;77.57
5062;BME280;2351;50.812;12.872;2023-04-25T06:28:45;97079.06;;;7.10;77.97
5062;BME280;2351;50.812;12.872;2023-04-25T06:31:17;97079.81;;;7.22;77.72
5062;BME280;2351;50.812;12.872;2023-04-25T06:33:49;97074.53;;;7.22;77.23
5062;BME280;2351;50.812;12.872;2023-04-25T06:36:20;97081.56;;;7.12;76.82
5062;BME280;2351;50.812;12.872;2023-04-25T06:38:55;97078.91;;;7.12;76.69
5062;BME280;2351;50.812;12.872;2023-04-25T06:41:28;97074.50;;;7.12;76.71
5062;BME280;2351;50.812;12.872;2023-04-25T06:44:00;97081.56;;;7.12;76.41
5062;BME280;2351;50.812;12.872;2023-04-25T06:46:32;97083.81;;;7.16;76.61
5062;BME280;2351;50.812;12.872;2023-04-25T06:49:03;97087.13;;;7.18;76.48
5062;BME280;2351;50.812;12.872;2023-04-25T06:51:35;97086.84;;;7.21;76.46
5062;BME280;2351;50.812;12.872;2023-04-25T06:54:07;97084.22;;;7.21;75.70
5062;BME280;2351;50.812;12.872;2023-04-25T06:56:40;97090.44;;;7.20;75.11
5062;BME280;2351;50.812;12.872;2023-04-25T06:59:12;97096.31;;;7.24;75.01
5062;BME280;2351;50.812;12.872;2023-04-25T07:01:43;97102.91;;;7.18;74.27
5062;BME280;2351;50.812;12.872;2023-04-25T07:04:15;97103.31;;;7.14;73.73
5062;BME280;2351;50.812;12.872;2023-04-25T07:06:47;97095.97;;;7.17;72.88
5062;BME280;2351;50.812;12.872;2023-04-25T07:09:19;97089.38;;;7.23;73.74
5062;BME280;2351;50.812;12.872;2023-04-25T07:11:52;97094.94;;;7.30;74.22
5062;BME280;2351;50.812;12.872;2023-04-25T07:14:24;97106.03;;;7.33;73.31
5062;BME280;2351;50.812;12.872;2023-04-25T07:16:56;97099.72;;;7.46;73.80
5062;BME280;2351;50.812;12.872;2023-04-25T07:19:27;97103.34;;;7.54;73.66
5062;BME280;2351;50.812;12.872;2023-04-25T07:22:00;97109.09;;;7.38;70.97
5062;BME280;2351;50.812;12.872;2023-04-25T07:24:32;97105.09;;;7.44;71.38
5062;BME280;2351;50.812;12.872;2023-04-25T07:27:05;97102.09;;;7.49;70.14
5062;BME280;2351;50.812;12.872;2023-04-25T07:29:37;97102.66;;;7.21;68.59
5062;BME280;2351;50.812;12.872;2023-04-25T07:32:09;97095.72;;;7.20;69.14
5062;BME280;2351;50.812;12.872;2023-04-25T07:34:42;97101.94;;;7.19;67.58
5062;BME280;2351;50.812;12.872;2023-04-25T07:37:14;97104.47;;;7.00;68.20
5062;BME280;2351;50.812;12.872;2023-04-25T07:39:46;97113.59;;;6.96;69.36
5062;BME280;2351;50.812;12.872;2023-04-25T07:42:19;97110.44;;;7.02;69.00
5062;BME280;2351;50.812;12.872;2023-04-25T07:44:51;97114.25;;;7.09;69.56
5062;BME280;2351;50.812;12.872;2023-04-25T07:47:23;97120.22;;;7.11;69.29
5062;BME280;2351;50.812;12.872;2023-04-25T07:49:55;97124.50;;;7.12;69.23
5062;BME280;2351;50.812;12.872;2023-04-25T07:52:28;97130.47;;;7.14;69.01
5062;BME280;2351;50.812;12.872;2023-04-25T07:54:59;97131.59;;;7.21;69.06
5062;BME280;2351;50.812;12.872;2023-04-25T07:57:32;97127.75;;;7.26;68.05
5062;BME280;2351;50.812;12.872;2023-04-25T08:00:05;97123.50;;;7.34;68.77
5062;BME280;2351;50.812;12.872;2023-04-25T08:02:39;97124.56;;;7.63;66.95
5062;BME280;2351;50.812;12.872;2023-04-25T08:05:11;97125.38;;;7.94;68.77
5062;BME280;2351;50.812;12.872;2023-04-25T08:07:44;97112.06;;;8.35;68.93
5062;BME280;2351;50.812;12.872;2023-04-25T08:10:16;97118.75;;;8.59;67.05
5062;BME280;2351;50.812;12.872;2023-04-25T08:12:49;97117.94;;;8.68;64.33
5062;BME280;2351;50.812;12.872;2023-04-25T08:15:21;97116.97;;;8.59;63.84
5062;BME280;2351;50.812;12.872;2023-04-25T08:17:53;97125.22;;;8.06;63.79
5062;BME280;2351;50.812;12.872;2023-04-25T08:20:25;97139.97;;;7.67;66.78
5062;BME280;2351;50.812;12.872;2023-04-25T08:22:56;97128.28;;;8.11;68.65
5062;BME280;2351;50.812;12.872;2023-04-25T08:25:28;97130.16;;;8.59;67.42
5062;BME280;2351;50.812;12.872;2023-04-25T08:28:01;97127.91;;;8.55;66.01
5062;BME280;2351;50.812;12.872;2023-04-25T08:30:33;97131.75;;;8.21;65.13
5062;BME280;2351;50.812;12.872;2023-04-25T08:33:05;97140.75;;;7.99;66.33
5062;BME280;2351;50.812;12.872;2023-04-25T08:35:37;97145.50;;;7.64;67.31
5062;BME280;2351;50.812;12.872;2023-04-25T08:38:08;97149.78;;;7.56;68.00
5062;BME280;2351;50.812;12.872;2023-04-25T08:40:40;97149.84;;;7.44;68.73
5062;BME280;2351;50.812;12.872;2023-04-25T08:43:14;97146.56;;;7.52;69.55
5062;BME280;2351;50.812;12.872;2023-04-25T08:45:46;97151.75;;;7.63;69.96
5062;BME280;2351;50.812;12.872;2023-04-25T08:48:18;97157.00;;;7.32;69.55
5062;BME280;2351;50.812;12.872;2023-04-25T08:50:52;97157.22;;;7.19;70.95
5062;BME280;2351;50.812;12.872;2023-04-25T08:53:26;97167.13;;;7.27;71.56
5062;BME280;2351;50.812;12.872;2023-04-25T08:56:00;97178.16;;;7.21;70.85
5062;BME280;2351;50.812;12.872;2023-04-25T08:58:34;97169.75;;;7.27;71.73
5062;BME280;2351;50.812;12.872;2023-04-25T09:01:07;97174.94;;;7.17;71.58
5062;BME280;2351;50.812;12.872;2023-04-25T09:03:38;97175.31;;;7.34;71.96
5062;BME280;2351;50.812;12.872;2023-04-25T09:06:10;97179.41;;;7.48;72.39
5062;BME280;2351;50.812;12.872;2023-04-25T09:08:42;97183.84;;;7.78;72.42
5062;BME280;2351;50.812;12.872;2023-04-25T09:11:14;97180.53;;;7.86;71.04
5062;BME280;2351;50.812;12.872;2023-04-25T09:13:47;97186.53;;;7.98;71.11
5062;BME280;2351;50.812;12.872;2023-04-25T09:16:19;97183.44;;;7.93;70.48
5062;BME280;2351;50.812;12.872;2023-04-25T09:18:52;97187.13;;;7.71;69.95
5062;BME280;2351;50.812;12.872;2023-04-25T09:21:24;97193.28;;;7.50;70.98
5062;BME280;2351;50.812;12.872;2023-04-25T09:23:55;97197.84;;;7.27;71.64
5062;BME280;2351;50.812;12.872;2023-04-25T09:26:29;97206.50;;;7.17;73.30
5062;BME280;2351;50.812;12.872;2023-04-25T09:29:06;97214.41;;;7.17;73.38
5062;BME280;2351;50.812;12.872;2023-04-25T09:31:38;97207.03;;;7.11;73.68
5062;BME280;2351;50.812;12.872;2023-04-25T09:34:10;97207.34;;;7.18;73.85
5062;BME280;2351;50.812;12.872;2023-04-25T09:36:45;97219.38;;;7.32;73.81
5062;BME280;2351;50.812;12.872;2023-04-25T09:39:17;97214.84;;;7.44;73.96
5062;BME280;2351;50.812;12.872;2023-04-25T09:41:53;97220.69;;;7.47;73.46
5062;BME280;2351;50.812;12.872;2023-04-25T09:44:26;97218.75;;;7.49;72.75
5062;BME280;2351;50.812;12.872;2023-04-25T09:46:58;97223.84;;;7.41;73.38
5062;BME280;2351;50.812;12.872;2023-04-25T09:49:30;97233.34;;;7.53;73.53
5062;BME280;2351;50.812;12.872;2023-04-25T09:52:02;97230.72;;;7.53;73.10
5062;BME280;2351;50.812;12.872;2023-04-25T09:54:33;97225.28;;;7.55;73.33
5062;BME280;2351;50.812;12.872;2023-04-25T09:57:10;97225.59;;;7.62;72.83
5062;BME280;2351;50.812;12.872;2023-04-25T09:59:45;97220.56;;;7.49;72.67
5062;BME280;2351;50.812;12.872;2023-04-25T10:02:18;97229.75;;;7.54;73.56
5062;BME280;2351;50.812;12.872;2023-04-25T10:04:51;97226.09;;;7.24;73.70
5062;BME280;2351;50.812;12.872;2023-04-25T10:07:29;97222.44;;;7.37;74.36
5062;BME280;2351;50.812;12.872;2023-04-25T10:10:03;97229.75;;;7.54;75.25
5062;BME280;2351;50.812;12.872;2023-04-25T10:12:36;97233.59;;;7.72;73.64
5062;BME280;2351;50.812;12.872;2023-04-25T10:15:12;97235.75;;;7.66;73.11
5062;BME280;2351;50.812;12.872;2023-04-25T10:17:45;97238.97;;;7.70;73.27
5062;BME280;2351;50.812;12.872;2023-04-25T10:20:17;97238.13;;;7.69;73.48
5062;BME280;2351;50.812;12.872;2023-04-25T10:22:50;97235.56;;;7.79;73.85
5062;BME280;2351;50.812;12.872;2023-04-25T10:25:26;97240.50;;;7.73;73.17
5062;BME280;2351;50.812;12.872;2023-04-25T10:27:59;97240.03;;;7.58;73.66
5062;BME280;2351;50.812;12.872;2023-04-25T10:30:33;97241.59;;;7.39;73.11
5062;BME280;2351;50.812;12.872;2023-04-25T10:33:16;97246.97;;;7.16;74.36
5062;BME280;2351;50.812;12.872;2023-04-25T10:35:49;97250.44;;;7.17;75.18
5062;BME280;2351;50.812;12.872;2023-04-25T10:38:20;97257.09;;;7.00;75.65
5062;BME280;2351;50.812;12.872;2023-04-25T10:41:02;97269.78;;;6.62;78.48
5062;BME280;2351;50.812;12.872;2023-04-25T10:43:36;97264.94;;;6.35;80.12
5062;BME280;2351;50.812;12.872;2023-04-25T10:46:17;97271.06;;;6.01;81.12
5062;BME280;2351;50.812;12.872;2023-04-25T10:48:51;97277.38;;;5.98;82.56
5062;BME280;2351;50.812;12.872;2023-04-25T10:51:24;97270.97;;;6.02;82.94
5062;BME280;2351;50.812;12.872;2023-04-25T10:53:58;97274.41;;;6.03;82.58
5062;BME280;2351;50.812;12.872;2023-04-25T10:56:31;97272.41;;;6.07;82.61
5062;BME280;2351;50.812;12.872;2023-04-25T10:59:05;97282.78;;;6.08;82.13
5062;BME280;2351;50.812;12.872;2023-04-25T11:01:40;97286.47;;;6.06;81.67
5062;BME280;2351;50.812;12.872;2023-04-25T11:04:21;97282.50;;;5.88;81.94
5062;BME280;2351;50.812;12.872;2023-04-25T11:07:04;97281.19;;;5.94;82.53
5062;BME280;2351;50.812;12.872;2023-04-25T11:09:40;97280.50;;;6.03;82.84
5062;BME280;2351;50.812;12.872;2023-04-25T11:12:12;97286.69;;;6.14;83.11
5062;BME280;2351;50.812;12.872;2023-04-25T11:14:44;97283.94;;;6.38;82.92
5062;BME280;2351;50.812;12.872;2023-04-25T11:17:17;97280.31;;;6.51;82.47
5062;BME280;2351;50.812;12.872;2023-04-25T11:19:49;97285.44;;;6.52;82.02
5062;BME280;2351;50.812;12.872;2023-04-25T11:22:21;97288.16;;;6.73;82.30
5062;BME280;2351;50.812;12.872;2023-04-25T11:24:53;97280.28;;;6.73;80.63
5062;BME280;2351;50.812;12.872;2023-04-25T11:27:25;97280.88;;;6.66;80.41
5062;BME280;2351;50.812;12.872;2023-04-25T11:29:57;97284.88;;;6.48;79.67
5062;BME280;2351;50.812;12.872;2023-04-25T11:32:30;97295.41;;;6.26;80.61
5062;BME280;2351;50.812;12.872;2023-04-25T11:35:02;97303.53;;;6.00;81.84
5062;BME280;2351;50.812;12.872;2023-04-25T11:37:33;97300.06;;;5.99;82.28
5062;BME280;2351;50.812;12.872;2023-04-25T11:40:06;97299.56;;;5.94;83.11
5062;BME280;2351;50.812;12.872;2023-04-25T11:42:43;97304.47;;;5.99;83.80
5062;BME280;2351;50.812;12.872;2023-04-25T11:45:15;97305.28;;;5.88;83.12
5062;BME280;2351;50.812;12.872;2023-04-25T11:47:50;97312.59;;;5.96;83.68
5062;BME280;2351;50.812;12.872;2023-04-25T11:50:22;97317.97;;;5.94;82.86
5062;BME280;2351;50.812;12.872;2023-04-25T11:52:56;97313.41;;;5.73;82.28
5062;BME280;2351;50.812;12.872;2023-04-25T11:55:30;97321.03;;;5.77;82.26
5062;BME280;2351;50.812;12.872;2023-04-25T11:58:03;97321.63;;;5.80;81.89
5062;BME280;2351;50.812;12.872;2023-04-25T12:00:35;97313.78;;;5.92;81.68
5062;BME280;2351;50.812;12.872;2023-04-25T12:03:09;97319.41;;;5.98;80.90
5062;BME280;2351;50.812;12.872;2023-04-25T12:05:40;97315.38;;;6.06;79.53
5062;BME280;2351;50.812;12.872;2023-04-25T12:08:13;97319.69;;;6.07;79.62
5062;BME280;2351;50.812;12.872;2023-04-25T12:10:45;97325.16;;;6.15;78.88
5062;BME280;2351;50.812;12.872;2023-04-25T12:13:19;97315.00;;;6.10;78.72
5062;BME280;2351;50.812;12.872;2023-04-25T12:15:52;97322.38;;;5.94;78.18
5062;BME280;2351;50.812;12.872;2023-04-25T12:18:26;97335.16;;;5.98;78.83
5062;BME280;2351;50.812;12.872;2023-04-25T12:20:58;97331.69;;;5.98;78.88
5062;BME280;2351;50.812;12.872;2023-04-25T12:23:30;97337.69;;;6.00;78.69
5062;BME280;2351;50.812;12.872;2023-04-25T12:26:02;97335.13;;;5.87;78.32
5062;BME280;2351;50.812;12.872;2023-04-25T12:28:33;97339.66;;;5.85;78.68
5062;BME280;2351;50.812;12.872;2023-04-25T12:31:06;97339.44;;;5.88;79.60
5062;BME280;2351;50.812;12.872;2023-04-25T12:33:40;97346.50;;;5.99;79.42
5062;BME280;2351;50.812;12.872;2023-04-25T12:36:13;97345.78;;;5.85;79.64
5062;BME280;2351;50.812;12.872;2023-04-25T12:38:44;97348.03;;;5.79;80.10
5062;BME280;2351;50.812;12.872;2023-04-25T12:41:16;97347.16;;;5.67;81.19
5062;BME280;2351;50.812;12.872;2023-04-25T12:43:48;97352.06;;;5.71;81.46
5062;BME280;2351;50.812;12.872;2023-04-25T12:46:19;97363.28;;;5.62;82.38
5062;BME280;2351;50.812;12.872;2023-04-25T12:48:53;97363.97;;;5.64;83.53
5062;BME280;2351;50.812;12.872;2023-04-25T12:51:25;97369.00;;;5.67;84.03
5062;BME280;2351;50.812;12.872;2023-04-25T12:53:58;97373.06;;;5.71;84.63
5062;BME280;2351;50.812;12.872;2023-04-25T12:56:30;97368.19;;;5.78;85.41
5062;BME280;2351;50.812;12.872;2023-04-25T12:59:02;97362.84;;;5.91;85.61
5062;BME280;2351;50.812;12.872;2023-04-25T13:01:35;97367.31;;;6.02;84.25
5062;BME280;2351;50.812;12.872;2023-04-25T13:04:08;97360.16;;;6.15;84.73
5062;BME280;2351;50.812;12.872;2023-04-25T13:06:39;97367.91;;;6.17;84.20
5062;BME280;2351;50.812;12.872;2023-04-25T13:09:11;97368.41;;;6.33;84.74
5062;BME280;2351;50.812;12.872;2023-04-25T13:11:43;97370.56;;;6.40;84.08
5062;BME280;2351;50.812;12.872;2023-04-25T13:14:16;97366.50;;;6.47;83.59
5062;BME280;2351;50.812;12.872;2023-04-25T13:16:47;97364.81;;;6.57;83.43
5062;BME280;2351;50.812;12.872;2023-04-25T13:19:20;97358.09;;;6.65;82.70
5062;BME280;2351;50.812;12.872;2023-04-25T13:21:52;97373.03;;;6.75;83.10
5062;BME280;2351;50.812;12.872;2023-04-25T13:24:24;97373.97;;;6.86;82.89
5062;BME280;2351;50.812;12.872;2023-04-25T13:26:56;97376.34;;;7.00;82.74
5062;BME280;2351;50.812;12.872;2023-04-25T13:29:27;97377.13;;;7.12;82.91
5062;BME280;2351;50.812;12.872;2023-04-25T13:31:59;97377.22;;;7.22;82.67
5062;BME280;2351;50.812;12.872;2023-04-25T13:34:32;97378.28;;;7.31;81.93
5062;BME280;2351;50.812;12.872;2023-04-25T13:37:04;97379.09;;;7.31;81.33
5062;BME280;2351;50.812;12.872;2023-04-25T13:39:36;97364.34;;;7.40;80.85
5062;BME280;2351;50.812;12.872;2023-04-25T13:42:08;97367.19;;;7.48;80.83
5062;BME280;2351;50.812;12.872;2023-04-25T13:44:40;97372.78;;;7.55;79.07
5062;BME280;2351;50.812;12.872;2023-04-25T13:47:11;97372.41;;;7.60;79.20
5062;BME280;2351;50.812;12.872;2023-04-25T13:49:44;97373.63;;;7.77;79.22